Time;durP1;ratioP1;P1;durP2;ratioP2;P2;SDS_P1;SDS_P2;PMS_P1;PMS_P2;Temp;Humidity;BMP_temperature;BMP_pressure;BME280_temperature;BME280_humidity;BME280_pressure;Samples;Min_cycle;Max_cycle;Signal;HPM_P1;HPM_P2
2022/09/22 00:01:18;;;;;;;0.10;0.10;;;6.70;99.90;;;;;;4992938;28;20201;-76
2022/09/22 00:03:48;;;;;;;0.10;0.10;;;6.80;99.90;;;;;;4993200;28;20235;-76
2022/09/22 00:06:18;;;;;;;0.10;0.10;;;6.70;99.90;;;;;;4992435;28;20201;-75
2022/09/22 00:08:52;;;;;;;0.10;0.10;;;6.80;99.90;;;;;;4992767;28;20221;-76
2022/09/22 00:11:22;;;;;;;0.00;0.00;;;6.70;99.90;;;;;;4993726;28;20192;-77
2022/09/22 00:13:53;;;;;;;0.10;0.10;;;6.70;99.90;;;;;;4994668;28;20192;-77
2022/09/22 00:16:24;;;;;;;0.10;0.10;;;6.80;99.90;;;;;;4993668;28;20196;-77
2022/09/22 00:18:52;;;;;;;0.10;0.10;;;6.90;99.90;;;;;;4982079;28;20225;-77
2022/09/22 00:21:22;;;;;;;0.08;0.08;;;6.80;99.90;;;;;;4993887;28;20196;-76
2022/09/22 00:23:52;;;;;;;0.08;0.08;;;6.80;99.90;;;;;;4993875;28;20196;-75
2022/09/22 00:26:22;;;;;;;0.10;0.10;;;6.60;99.90;;;;;;4992632;28;20251;-76
2022/09/22 00:28:51;;;;;;;0.10;0.10;;;6.50;99.90;;;;;;4992214;28;20343;-75
2022/09/22 00:31:21;;;;;;;0.10;0.10;;;6.50;99.90;;;;;;4992344;28;20228;-75
2022/09/22 00:33:50;;;;;;;0.05;0.05;;;6.50;99.90;;;;;;4992428;28;20188;-77
2022/09/22 00:36:20;;;;;;;0.10;0.10;;;6.50;99.90;;;;;;4990903;28;20259;-76
2022/09/22 00:38:49;;;;;;;0.00;0.00;;;6.50;99.90;;;;;;4991840;28;20220;-76
2022/09/22 00:41:20;;;;;;;0.10;0.10;;;6.50;99.90;;;;;;4992159;28;20204;-76
2022/09/22 00:43:50;;;;;;;0.10;0.10;;;6.50;99.90;;;;;;4991697;28;20251;-77
2022/09/22 00:46:22;;;;;;;0.03;0.03;;;6.50;99.90;;;;;;4992863;28;20200;-77
2022/09/22 00:48:52;;;;;;;0.10;0.10;;;6.40;99.90;;;;;;4992469;28;20279;-78
2022/09/22 00:51:24;;;;;;;0.10;0.10;;;6.40;99.90;;;;;;4993890;28;20295;-78
2022/09/22 00:53:53;;;;;;;0.10;0.10;;;6.40;99.90;;;;;;4995451;28;20209;-78
2022/09/22 00:56:26;;;;;;;0.10;0.10;;;6.40;99.90;;;;;;4995568;28;20231;-78
2022/09/22 00:58:57;;;;;;;0.10;0.10;;;6.50;99.90;;;;;;4993663;28;20216;-77
2022/09/22 01:01:25;;;;;;;0.10;0.10;;;6.40;99.90;;;;;;4994505;28;20235;-77
2022/09/22 01:03:55;;;;;;;0.10;0.10;;;6.40;99.90;;;;;;4992513;28;20231;-77
2022/09/22 01:06:27;;;;;;;0.03;0.03;;;6.40;99.90;;;;;;4975835;28;20201;-77
2022/09/22 01:08:56;;;;;;;0.10;0.10;;;6.40;99.90;;;;;;4991468;28;20216;-76
2022/09/22 01:11:27;;;;;;;0.10;0.10;;;6.50;99.90;;;;;;4992170;28;20192;-77
2022/09/22 01:14:03;;;;;;;0.10;0.10;;;6.50;99.90;;;;;;4992094;28;20754;-77
2022/09/22 01:16:42;;;;;;;0.10;0.10;;;6.50;99.90;;;;;;4992187;28;20196;-77
2022/09/22 01:19:39;;;;;;;0.08;0.08;;;6.60;99.90;;;;;;4991186;28;20216;-77
2022/09/22 01:22:18;;;;;;;0.10;0.10;;;6.60;99.90;;;;;;4982371;28;20204;-77
2022/09/22 01:24:54;;;;;;;0.10;0.10;;;6.50;99.90;;;;;;4991901;28;20678;-77
2022/09/22 01:27:52;;;;;;;0.10;0.10;;;6.50;99.90;;;;;;4991311;28;20678;-77
2022/09/22 01:30:24;;;;;;;0.10;0.10;;;6.40;99.90;;;;;;4992075;28;20223;-77
2022/09/22 01:33:23;;;;;;;0.00;0.00;;;6.30;99.90;;;;;;4990950;28;20219;-76
2022/09/22 01:36:05;;;;;;;0.10;0.10;;;6.30;99.90;;;;;;4991604;28;20196;-77
2022/09/22 01:38:40;;;;;;;0.10;0.10;;;6.30;99.90;;;;;;4992214;28;20239;-78
2022/09/22 01:41:15;;;;;;;0.00;0.00;;;6.30;99.90;;;;;;4991967;28;20204;-76
2022/09/22 01:43:49;;;;;;;0.03;0.03;;;6.30;99.90;;;;;;4991547;28;20449;-77
2022/09/22 01:46:24;;;;;;;0.10;0.10;;;6.30;99.90;;;;;;4991563;28;20200;-76
2022/09/22 01:48:55;;;;;;;0.10;0.10;;;6.30;99.90;;;;;;4991193;28;20243;-76
2022/09/22 01:51:27;;;;;;;0.10;0.10;;;6.40;99.90;;;;;;5009639;23;20259;-77
2022/09/22 01:54:01;;;;;;;0.10;0.10;;;6.30;99.90;;;;;;4997606;28;20579;-77
2022/09/22 01:56:33;;;;;;;0.00;0.00;;;6.20;99.90;;;;;;5000227;28;20200;-77
2022/09/22 01:59:04;;;;;;;0.03;0.03;;;6.10;99.90;;;;;;5000727;28;20323;-77
2022/09/22 02:01:38;;;;;;;0.10;0.10;;;6.10;99.90;;;;;;5001384;28;20207;-77
2022/09/22 02:04:11;;;;;;;0.10;0.10;;;6.20;99.90;;;;;;4982793;28;20224;-77
2022/09/22 02:06:43;;;;;;;0.10;0.10;;;6.20;99.90;;;;;;4983665;28;20201;-77
2022/09/22 02:09:12;;;;;;;0.00;0.00;;;6.20;99.90;;;;;;5019216;28;20207;-78
2022/09/22 02:11:42;;;;;;;0.10;0.10;;;6.00;99.90;;;;;;5013809;28;20232;-75
2022/09/22 02:14:10;;;;;;;0.10;0.10;;;5.90;99.90;;;;;;5016333;28;20215;-75
2022/09/22 02:16:40;;;;;;;0.05;0.05;;;5.80;99.90;;;;;;5034002;28;20196;-76
2022/09/22 02:19:11;;;;;;;0.10;0.10;;;5.70;99.90;;;;;;5034149;28;20200;-75
2022/09/22 02:21:43;;;;;;;0.10;0.10;;;5.60;99.90;;;;;;5017240;28;20257;-76
2022/09/22 02:24:29;;;;;;;0.10;0.10;;;5.60;99.90;;;;;;4996851;28;20619;-76
2022/09/22 02:26:58;;;;;;;0.10;0.10;;;5.60;99.90;;;;;;4996763;28;20204;-75
2022/09/22 02:29:29;;;;;;;0.08;0.08;;;5.60;99.90;;;;;;4996405;28;20255;-77
2022/09/22 02:32:01;;;;;;;0.10;0.10;;;5.60;99.90;;;;;;5003393;28;20224;-77
2022/09/22 02:34:29;;;;;;;0.10;0.10;;;5.60;99.90;;;;;;5000374;28;20231;-77
2022/09/22 02:37:04;;;;;;;0.10;0.10;;;5.60;99.90;;;;;;4981273;28;20316;-77
2022/09/22 02:39:37;;;;;;;0.10;0.10;;;5.60;99.90;;;;;;5002096;28;20212;-78
2022/09/22 02:42:16;;;;;;;0.10;0.10;;;5.70;99.90;;;;;;4996189;28;20779;-77
2022/09/22 02:44:49;;;;;;;0.00;0.00;;;5.70;99.90;;;;;;4986792;28;20240;-77
2022/09/22 02:47:26;;;;;;;0.10;0.10;;;5.70;99.90;;;;;;5012358;28;20234;-78
2022/09/22 02:49:57;;;;;;;0.10;0.10;;;5.70;99.90;;;;;;5014123;28;20212;-77
2022/09/22 02:52:27;;;;;;;0.10;0.10;;;5.70;99.90;;;;;;5001211;28;20323;-78
2022/09/22 02:54:56;;;;;;;0.10;0.10;;;5.60;99.90;;;;;;5002732;28;20613;-77
2022/09/22 02:57:24;;;;;;;0.10;0.10;;;5.70;99.90;;;;;;5010914;28;20246;-76
2022/09/22 02:59:51;;;;;;;0.10;0.10;;;5.70;99.90;;;;;;5021378;28;20203;-77
2022/09/22 03:02:21;;;;;;;0.10;0.10;;;5.70;99.90;;;;;;5021507;28;20211;-74
2022/09/22 03:04:50;;;;;;;0.10;0.10;;;5.70;99.90;;;;;;5022292;28;20196;-76
2022/09/22 03:07:18;;;;;;;0.00;0.00;;;5.70;99.90;;;;;;5013462;28;20672;-76
2022/09/22 03:09:46;;;;;;;0.00;0.00;;;5.70;99.90;;;;;;5002173;28;20568;-77
2022/09/22 03:12:14;;;;;;;0.05;0.05;;;5.70;99.90;;;;;;5000752;28;20566;-77
2022/09/22 03:14:42;;;;;;;0.10;0.10;;;5.60;99.90;;;;;;5005726;28;20530;-76
2022/09/22 03:17:10;;;;;;;0.05;0.05;;;5.60;99.90;;;;;;5012919;28;20204;-76
2022/09/22 03:19:39;;;;;;;0.03;0.03;;;5.70;99.90;;;;;;5000182;28;20291;-76
2022/09/22 03:22:07;;;;;;;0.10;0.10;;;5.60;99.90;;;;;;5003040;28;20229;-74
2022/09/22 03:24:35;;;;;;;0.00;0.00;;;5.50;99.90;;;;;;5019533;28;20197;-74
2022/09/22 03:27:03;;;;;;;0.10;0.10;;;5.50;99.90;;;;;;5024361;28;20183;-72
2022/09/22 03:29:31;;;;;;;0.00;0.00;;;5.50;99.90;;;;;;5037895;28;20204;-73
2022/09/22 03:31:59;;;;;;;0.10;0.10;;;5.50;99.90;;;;;;5018924;28;20227;-74
2022/09/22 03:34:27;;;;;;;0.00;0.00;;;5.50;99.90;;;;;;4997735;28;20227;-77
2022/09/22 03:36:56;;;;;;;0.10;0.10;;;5.50;99.90;;;;;;4996553;28;20212;-75
2022/09/22 03:39:23;;;;;;;0.10;0.10;;;5.50;99.90;;;;;;4993332;28;20204;-74
2022/09/22 03:41:51;;;;;;;0.10;0.10;;;5.50;99.90;;;;;;4992554;28;20344;-74
2022/09/22 03:44:19;;;;;;;0.10;0.10;;;5.40;99.90;;;;;;4974657;28;20205;-75
2022/09/22 03:46:47;;;;;;;0.10;0.10;;;5.30;99.90;;;;;;4978582;28;20251;-75
2022/09/22 03:49:15;;;;;;;0.10;0.10;;;5.30;99.90;;;;;;4994013;28;20231;-75
2022/09/22 03:51:42;;;;;;;0.10;0.10;;;5.20;99.90;;;;;;4997829;28;20709;-75
2022/09/22 03:54:12;;;;;;;0.10;0.10;;;5.20;99.90;;;;;;5014857;28;20218;-75
2022/09/22 03:56:40;;;;;;;0.10;0.10;;;5.20;99.90;;;;;;5011438;28;20227;-74
2022/09/22 03:59:09;;;;;;;0.10;0.10;;;5.00;99.90;;;;;;4986361;28;20205;-75
2022/09/22 04:01:37;;;;;;;0.10;0.10;;;5.00;99.90;;;;;;5006632;28;20223;-76
2022/09/22 04:04:05;;;;;;;0.08;0.08;;;5.00;99.90;;;;;;4994521;28;20292;-78
2022/09/22 04:06:33;;;;;;;0.10;0.10;;;5.00;99.90;;;;;;4995725;28;20616;-76
2022/09/22 04:09:01;;;;;;;0.10;0.10;;;5.00;99.90;;;;;;5013963;28;20207;-77
2022/09/22 04:11:30;;;;;;;0.10;0.10;;;5.00;99.90;;;;;;5013978;28;20721;-77
2022/09/22 04:14:00;;;;;;;0.10;0.10;;;5.00;99.90;;;;;;5015871;28;20667;-76
2022/09/22 04:16:28;;;;;;;0.10;0.10;;;5.00;99.90;;;;;;5009470;28;20204;-78
2022/09/22 04:18:56;;;;;;;0.10;0.10;;;5.00;99.90;;;;;;4994984;28;20238;-77
2022/09/22 04:21:24;;;;;;;0.10;0.10;;;5.10;99.90;;;;;;4994572;28;20224;-77
2022/09/22 04:23:52;;;;;;;0.10;0.10;;;5.00;99.90;;;;;;4994742;28;20223;-77
2022/09/22 04:26:20;;;;;;;0.00;0.00;;;5.00;99.90;;;;;;5010384;28;20282;-77
2022/09/22 04:28:49;;;;;;;0.10;0.10;;;5.00;99.90;;;;;;5012857;28;20722;-77
2022/09/22 04:31:18;;;;;;;0.10;0.10;;;5.00;99.90;;;;;;4978158;28;20247;-77
2022/09/22 04:33:48;;;;;;;0.10;0.10;;;4.90;99.90;;;;;;4997944;28;20279;-77
2022/09/22 04:36:19;;;;;;;0.10;0.10;;;4.90;99.90;;;;;;5008679;28;20204;-76
2022/09/22 04:38:47;;;;;;;0.10;0.10;;;4.80;99.90;;;;;;5010950;28;20204;-77
2022/09/22 04:41:15;;;;;;;0.10;0.10;;;4.70;99.90;;;;;;5009821;28;20240;-76
2022/09/22 04:43:43;;;;;;;0.03;0.03;;;4.60;99.90;;;;;;5019705;28;20341;-76
2022/09/22 04:46:12;;;;;;;0.10;0.10;;;4.60;99.90;;;;;;5007241;28;20200;-77
2022/09/22 04:48:40;;;;;;;0.10;0.10;;;4.70;99.90;;;;;;4993923;28;20295;-76
2022/09/22 04:51:07;;;;;;;0.10;0.10;;;4.70;99.90;;;;;;4992833;28;20231;-76
2022/09/22 04:53:35;;;;;;;0.10;0.10;;;4.70;99.90;;;;;;4975283;28;20263;-76
2022/09/22 04:56:04;;;;;;;0.10;0.10;;;4.70;99.90;;;;;;5011980;28;20727;-76
2022/09/22 04:58:31;;;;;;;0.10;0.10;;;4.70;99.90;;;;;;5011443;28;20200;-75
2022/09/22 05:01:02;;;;;;;0.10;0.10;;;4.80;99.90;;;;;;5013305;28;20224;-76
2022/09/22 05:03:31;;;;;;;0.10;0.10;;;4.80;99.90;;;;;;5012917;28;20200;-76
2022/09/22 05:05:59;;;;;;;0.00;0.00;;;4.80;99.90;;;;;;4995819;28;20201;-76
2022/09/22 05:08:27;;;;;;;0.10;0.10;;;4.80;99.90;;;;;;4998472;28;20199;-77
2022/09/22 05:10:55;;;;;;;0.10;0.10;;;4.90;99.90;;;;;;5000813;28;20263;-76
2022/09/22 05:13:26;;;;;;;0.10;0.10;;;4.90;99.90;;;;;;5005015;28;20251;-76
2022/09/22 05:15:54;;;;;;;0.10;0.10;;;4.80;99.90;;;;;;4991075;28;20219;-77
2022/09/22 05:18:22;;;;;;;0.10;0.10;;;4.80;99.90;;;;;;4992911;28;20195;-76
2022/09/22 05:20:51;;;;;;;0.10;0.10;;;4.80;99.90;;;;;;4993203;28;20216;-76
2022/09/22 05:23:19;;;;;;;0.10;0.10;;;4.80;99.90;;;;;;4993146;28;20188;-75
2022/09/22 05:25:47;;;;;;;0.10;0.10;;;4.80;99.90;;;;;;4995056;28;20200;-75
2022/09/22 05:28:21;;;;;;;0.10;0.10;;;4.80;99.90;;;;;;4999054;28;20231;-75
2022/09/22 05:30:53;;;;;;;0.10;0.10;;;4.80;99.90;;;;;;4998803;28;20228;-75
2022/09/22 05:33:22;;;;;;;0.10;0.10;;;4.80;99.90;;;;;;5019923;28;20570;-76
2022/09/22 05:35:51;;;;;;;0.10;0.10;;;4.80;99.90;;;;;;5001149;28;20239;-76
2022/09/22 05:38:19;;;;;;;0.10;0.10;;;4.80;99.90;;;;;;4996249;28;20204;-76
2022/09/22 05:40:47;;;;;;;0.00;0.00;;;4.80;99.90;;;;;;5003501;28;20710;-76
2022/09/22 05:43:15;;;;;;;0.10;0.10;;;4.70;99.90;;;;;;4999898;28;20208;-75
2022/09/22 05:45:43;;;;;;;0.10;0.10;;;4.80;99.90;;;;;;4982620;28;20264;-76
2022/09/22 05:48:11;;;;;;;0.10;0.10;;;4.80;99.90;;;;;;4977182;28;20189;-76
2022/09/22 05:50:39;;;;;;;0.10;0.10;;;4.70;99.90;;;;;;4988535;28;20223;-76
2022/09/22 05:53:10;;;;;;;0.10;0.10;;;4.80;99.90;;;;;;4977728;28;20656;-76
2022/09/22 05:55:38;;;;;;;0.00;0.00;;;5.00;99.90;;;;;;4977643;28;20229;-76
2022/09/22 05:58:08;;;;;;;0.10;0.10;;;5.10;99.90;;;;;;4983417;28;20215;-76
2022/09/22 06:00:35;;;;;;;0.10;0.10;;;5.30;99.90;;;;;;4997007;28;20196;-76
2022/09/22 06:03:04;;;;;;;0.10;0.10;;;5.40;99.90;;;;;;4999330;28;20220;-76
2022/09/22 06:05:31;;;;;;;0.05;0.05;;;5.40;99.90;;;;;;5014846;28;20191;-76
2022/09/22 06:08:05;;;;;;;0.10;0.10;;;5.20;99.90;;;;;;5013839;28;20663;-76
2022/09/22 06:10:37;;;;;;;0.10;0.10;;;5.10;99.90;;;;;;4990577;28;20212;-76
2022/09/22 06:13:06;;;;;;;0.10;0.10;;;5.10;99.90;;;;;;4996918;28;20255;-76
2022/09/22 06:15:35;;;;;;;0.10;0.10;;;5.10;99.90;;;;;;4995766;28;20263;-76
2022/09/22 06:18:05;;;;;;;0.05;0.05;;;5.20;99.90;;;;;;4996610;28;20204;-76
2022/09/22 06:20:34;;;;;;;0.10;0.10;;;5.30;99.90;;;;;;4997544;28;20279;-76
2022/09/22 06:23:02;;;;;;;0.10;0.10;;;5.30;99.90;;;;;;4997215;28;20215;-76
2022/09/22 06:25:30;;;;;;;0.10;0.10;;;5.40;99.90;;;;;;4995827;28;20247;-76
2022/09/22 06:28:01;;;;;;;0.10;0.10;;;5.50;99.90;;;;;;4996507;28;20251;-76
2022/09/22 06:30:29;;;;;;;0.10;0.10;;;5.40;99.90;;;;;;4996071;28;20201;-76
2022/09/22 06:32:57;;;;;;;0.10;0.10;;;5.50;99.90;;;;;;4996952;28;20594;-76
2022/09/22 06:35:27;;;;;;;0.00;0.00;;;5.50;99.90;;;;;;4995171;28;20247;-76
2022/09/22 06:37:58;;;;;;;0.00;0.00;;;5.70;99.90;;;;;;4987271;28;20227;-76
2022/09/22 06:40:27;;;;;;;0.10;0.10;;;5.70;99.90;;;;;;4995771;28;20221;-76
2022/09/22 06:43:06;;;;;;;0.10;0.10;;;5.70;99.90;;;;;;4979259;28;20270;-76
2022/09/22 06:45:34;;;;;;;0.10;0.10;;;5.80;99.90;;;;;;4996698;28;20247;-76
2022/09/22 06:48:02;;;;;;;0.00;0.00;;;5.90;99.90;;;;;;4994578;28;20200;-76
2022/09/22 06:50:37;;;;;;;0.10;0.10;;;5.90;99.90;;;;;;4996082;28;20238;-76
2022/09/22 06:53:06;;;;;;;0.10;0.10;;;6.00;99.90;;;;;;4990753;28;20252;-76
2022/09/22 06:55:36;;;;;;;0.10;0.10;;;6.10;99.90;;;;;;4985246;28;20245;-76
2022/09/22 06:58:05;;;;;;;0.10;0.10;;;6.20;99.90;;;;;;4975956;28;20205;-76
2022/09/22 07:00:33;;;;;;;0.10;0.10;;;6.20;99.90;;;;;;4976758;28;20205;-76
2022/09/22 07:03:05;;;;;;;0.05;0.05;;;6.30;99.90;;;;;;4994362;28;20224;-76
2022/09/22 07:05:35;;;;;;;0.10;0.10;;;6.40;99.90;;;;;;4996036;28;20197;-76
2022/09/22 07:08:04;;;;;;;0.10;0.10;;;6.50;99.90;;;;;;4996408;28;20200;-76
2022/09/22 07:10:36;;;;;;;0.10;0.10;;;6.60;99.90;;;;;;4994212;28;20685;-75
2022/09/22 07:13:05;;;;;;;0.00;0.00;;;6.60;99.90;;;;;;4996001;28;20196;-76
2022/09/22 07:15:36;;;;;;;0.05;0.05;;;6.70;99.90;;;;;;4996729;28;20687;-76
2022/09/22 07:18:04;;;;;;;0.10;0.10;;;6.80;99.90;;;;;;4997616;28;20200;-78
2022/09/22 07:20:34;;;;;;;0.05;0.05;;;6.90;99.90;;;;;;4997699;28;20231;-78
2022/09/22 07:23:02;;;;;;;0.10;0.10;;;7.00;99.90;;;;;;4998070;28;20282;-78
2022/09/22 07:25:32;;;;;;;0.10;0.10;;;7.10;99.90;;;;;;4997313;28;20196;-78
2022/09/22 07:28:03;;;;;;;0.00;0.00;;;7.20;99.90;;;;;;4994755;28;20209;-78
2022/09/22 07:30:35;;;;;;;0.10;0.10;;;7.30;99.90;;;;;;4997043;28;20193;-78
2022/09/22 07:33:04;;;;;;;0.10;0.10;;;7.40;99.90;;;;;;4997352;28;20231;-78
2022/09/22 07:35:34;;;;;;;0.10;0.10;;;7.50;99.90;;;;;;4997816;28;20197;-78
2022/09/22 07:38:02;;;;;;;0.10;0.10;;;7.60;99.90;;;;;;4997792;28;20251;-78
2022/09/22 07:40:31;;;;;;;0.10;0.10;;;7.70;99.90;;;;;;4979380;28;20210;-76
2022/09/22 07:42:59;;;;;;;0.10;0.10;;;7.80;99.90;;;;;;4992928;28;20234;-76
2022/09/22 07:45:27;;;;;;;0.10;0.10;;;7.90;99.90;;;;;;4997525;28;20196;-78
2022/09/22 07:50:41;;;;;;;0.10;0.10;;;8.10;99.90;;;;;;4996623;28;20196;-76
2022/09/22 07:53:09;;;;;;;0.10;0.10;;;8.10;99.90;;;;;;5028280;23;20235;-78
2022/09/22 07:55:37;;;;;;;0.08;0.08;;;8.20;99.90;;;;;;5013445;28;20287;-78
2022/09/22 07:58:05;;;;;;;0.10;0.10;;;8.30;99.90;;;;;;5012418;28;20736;-77
2022/09/22 08:00:35;;;;;;;0.00;0.00;;;8.40;99.90;;;;;;5013116;28;20913;-77
2022/09/22 08:03:06;;;;;;;0.10;0.10;;;8.50;99.90;;;;;;5012732;28;20223;-77
2022/09/22 08:05:34;;;;;;;0.10;0.10;;;8.60;99.90;;;;;;5012959;28;20204;-77
2022/09/22 08:08:04;;;;;;;0.03;0.03;;;8.60;99.90;;;;;;5012083;28;20377;-78
2022/09/22 08:10:34;;;;;;;0.10;0.10;;;8.70;99.90;;;;;;5012895;28;20195;-78
2022/09/22 08:13:03;;;;;;;0.08;0.08;;;8.80;99.90;;;;;;5012374;28;20215;-77
2022/09/22 08:15:31;;;;;;;0.10;0.10;;;8.90;99.90;;;;;;5015010;28;20200;-78
2022/09/22 08:17:59;;;;;;;0.10;0.10;;;9.00;99.90;;;;;;5014718;28;20204;-78
2022/09/22 08:20:28;;;;;;;0.10;0.10;;;9.10;99.90;;;;;;5016268;28;20199;-77
2022/09/22 08:22:59;;;;;;;0.10;0.10;;;9.10;99.90;;;;;;4996939;28;20251;-77
2022/09/22 08:25:27;;;;;;;0.10;0.10;;;9.20;99.90;;;;;;5016350;28;20674;-78
2022/09/22 08:27:55;;;;;;;0.10;0.10;;;9.40;99.90;;;;;;5016211;28;20200;-77
2022/09/22 08:30:23;;;;;;;0.10;0.10;;;9.50;99.90;;;;;;5015708;28;20203;-78
2022/09/22 08:32:50;;;;;;;0.10;0.10;;;9.60;99.90;;;;;;5015227;28;20212;-78
2022/09/22 08:35:18;;;;;;;0.10;0.10;;;9.70;99.90;;;;;;4994410;28;20671;-78
2022/09/22 08:37:49;;;;;;;0.10;0.10;;;9.80;99.90;;;;;;5010938;28;20212;-77
2022/09/22 08:40:22;;;;;;;0.10;0.10;;;9.80;99.90;;;;;;5011941;28;20204;-77
2022/09/22 08:42:51;;;;;;;0.10;0.10;;;9.90;99.90;;;;;;5012220;28;20740;-77
2022/09/22 08:45:28;;;;;;;0.10;0.10;;;10.00;99.90;;;;;;5011942;28;20196;-77
2022/09/22 08:53:42;;;;;;;0.00;0.00;;;10.30;99.90;;;;;;5011997;28;20227;-78
2022/09/22 08:56:18;;;;;;;0.10;0.10;;;10.40;99.90;;;;;;5011733;28;20265;-77
2022/09/22 08:58:54;;;;;;;0.10;0.10;;;10.60;99.90;;;;;;5011932;28;20217;-77
2022/09/22 09:01:37;;;;;;;0.10;0.10;;;10.60;99.90;;;;;;4991152;28;20733;-78
2022/09/22 09:04:39;;;;;;;0.00;0.00;;;10.80;99.90;;;;;;4976910;28;20229;-77
2022/09/22 09:07:13;;;;;;;0.10;0.10;;;10.80;99.90;;;;;;5013589;28;20261;-77
2022/09/22 09:09:56;;;;;;;0.10;0.10;;;11.00;99.90;;;;;;5000336;28;20204;-77
2022/09/22 09:12:43;;;;;;;0.10;0.10;;;11.10;99.90;;;;;;4992674;28;20216;-77
2022/09/22 09:15:27;;;;;;;0.10;0.10;;;11.20;99.90;;;;;;4992360;28;20227;-77
2022/09/22 09:18:01;;;;;;;0.10;0.10;;;11.30;99.90;;;;;;4992230;28;20200;-78
2022/09/22 09:20:37;;;;;;;0.10;0.10;;;11.40;99.90;;;;;;4992070;28;20231;-77
2022/09/22 09:23:13;;;;;;;0.10;0.10;;;11.50;99.90;;;;;;4991930;28;20247;-78
2022/09/22 09:25:43;;;;;;;0.00;0.00;;;11.60;99.90;;;;;;4991691;28;20667;-78
2022/09/22 09:28:15;;;;;;;0.00;0.00;;;11.70;99.90;;;;;;4991693;28;20679;-77
2022/09/22 09:30:45;;;;;;;0.00;0.00;;;11.80;99.90;;;;;;4992527;28;20283;-78
2022/09/22 09:33:21;;;;;;;0.05;0.05;;;11.90;99.90;;;;;;4990551;28;20270;-77
2022/09/22 09:35:52;;;;;;;0.05;0.05;;;12.00;99.90;;;;;;4991855;28;20230;-78
2022/09/22 09:38:27;;;;;;;0.10;0.10;;;12.10;99.90;;;;;;4991313;28;20212;-78
2022/09/22 09:41:01;;;;;;;0.10;0.10;;;12.20;99.90;;;;;;4992164;28;20246;-78
2022/09/22 09:43:32;;;;;;;0.10;0.10;;;12.30;99.90;;;;;;4992443;28;20274;-78
2022/09/22 09:46:12;;;;;;;0.10;0.10;;;12.40;99.90;;;;;;4991537;28;20243;-77
2022/09/22 09:48:51;;;;;;;0.10;0.10;;;12.60;99.90;;;;;;4991774;28;20207;-78
2022/09/22 09:51:20;;;;;;;0.10;0.10;;;12.60;99.90;;;;;;4992212;28;20290;-78
2022/09/22 09:53:48;;;;;;;0.10;0.10;;;12.70;99.90;;;;;;4991932;28;20278;-78
2022/09/22 09:56:25;;;;;;;0.03;0.03;;;12.80;99.90;;;;;;4992266;28;20185;-78
2022/09/22 10:01:45;;;;;;;0.10;0.10;;;13.00;99.90;;;;;;4974417;28;20625;-78
2022/09/22 10:04:28;;;;;;;0.10;0.10;;;13.10;99.90;;;;;;4991406;28;20823;-78
2022/09/22 10:07:09;;;;;;;0.10;0.10;;;13.20;99.90;;;;;;4991559;28;20596;-78
2022/09/22 10:09:37;;;;;;;0.10;0.10;;;13.30;99.90;;;;;;4991562;28;20262;-77
2022/09/22 10:12:19;;;;;;;0.10;0.10;;;13.30;99.90;;;;;;4991361;28;20272;-78
2022/09/22 10:14:50;;;;;;;0.03;0.03;;;13.50;99.90;;;;;;4991706;28;20606;-78
2022/09/22 10:17:22;;;;;;;0.10;0.10;;;13.60;99.90;;;;;;4994007;28;20745;-78
2022/09/22 10:19:50;;;;;;;0.10;0.10;;;13.60;99.90;;;;;;4995476;28;20255;-78
2022/09/22 10:22:26;;;;;;;0.10;0.10;;;13.60;99.90;;;;;;4995324;28;20204;-78
2022/09/22 10:24:59;;;;;;;0.10;0.10;;;13.70;99.90;;;;;;4995011;28;20781;-77
2022/09/22 10:27:30;;;;;;;0.00;0.00;;;13.80;99.90;;;;;;4995042;28;20663;-80
2022/09/22 10:30:14;;;;;;;0.10;0.10;;;13.80;99.90;;;;;;4995045;28;20263;-78
2022/09/22 10:32:42;;;;;;;0.10;0.10;;;13.90;99.90;;;;;;4996187;28;20223;-77
2022/09/22 10:35:26;;;;;;;0.00;0.00;;;14.00;99.90;;;;;;4994978;28;20248;-78
2022/09/22 10:37:57;;;;;;;0.10;0.10;;;14.00;99.90;;;;;;4993341;28;20267;-78
2022/09/22 10:40:26;;;;;;;0.08;0.08;;;14.10;99.90;;;;;;4995165;28;20200;-78
2022/09/22 10:42:58;;;;;;;0.10;0.10;;;14.20;99.90;;;;;;4995195;28;20765;-77
2022/09/22 10:45:40;;;;;;;0.00;0.00;;;14.20;99.90;;;;;;4995730;28;20569;-77
2022/09/22 10:48:16;;;;;;;0.10;0.10;;;14.30;99.90;;;;;;4994925;28;20201;-77
2022/09/22 10:50:59;;;;;;;0.10;0.10;;;14.50;99.90;;;;;;4995528;28;20561;-77
2022/09/22 10:53:36;;;;;;;0.00;0.00;;;14.60;99.90;;;;;;4994834;28;20290;-77
2022/09/22 10:56:13;;;;;;;0.00;0.00;;;15.00;99.90;;;;;;4994532;28;20192;-78
2022/09/22 10:58:58;;;;;;;0.05;0.05;;;15.50;99.90;;;;;;4994004;28;20247;-77
2022/09/22 11:01:42;;;;;;;0.00;0.00;;;15.60;99.90;;;;;;4994663;28;20228;-77
2022/09/22 11:04:24;;;;;;;0.00;0.00;;;15.80;99.90;;;;;;4992839;28;20240;-77
2022/09/22 11:13:06;;;;;;;0.00;0.00;;;16.30;99.90;;;;;;4994298;28;20220;-78
2022/09/22 11:15:55;;;;;;;0.00;0.00;;;16.70;99.90;;;;;;4995128;28;20717;-78
2022/09/22 11:18:41;;;;;;;0.00;0.00;;;16.90;99.90;;;;;;4994996;28;20253;-78
2022/09/22 11:21:22;;;;;;;0.00;0.00;;;17.10;99.90;;;;;;4995571;28;20663;-77
2022/09/22 11:24:07;;;;;;;0.00;0.00;;;17.00;99.90;;;;;;4994104;28;20216;-77
2022/09/22 11:26:49;;;;;;;0.00;0.00;;;17.10;99.90;;;;;;4994019;28;20255;-77
2022/09/22 11:29:55;;;;;;;0.00;0.00;;;17.30;99.90;;;;;;4992614;28;20197;-77
2022/09/22 11:32:45;;;;;;;0.00;0.00;;;17.60;99.90;;;;;;4993777;28;20223;-78
2022/09/22 11:35:27;;;;;;;0.00;0.00;;;17.80;99.90;;;;;;4992730;28;20658;-78
2022/09/22 11:38:11;;;;;;;0.00;0.00;;;18.00;99.90;;;;;;4993926;28;20679;-78
2022/09/22 11:41:07;;;;;;;0.00;0.00;;;18.20;99.90;;;;;;4995829;28;20247;-78
2022/09/22 11:43:52;;;;;;;0.00;0.00;;;18.40;99.90;;;;;;4995842;28;20284;-78
2022/09/22 11:46:35;;;;;;;0.00;0.00;;;18.50;99.90;;;;;;4994052;28;20220;-78
2022/09/22 11:49:16;;;;;;;0.00;0.00;;;18.40;99.90;;;;;;4994919;28;20603;-78
2022/09/22 11:51:56;;;;;;;0.00;0.00;;;18.30;99.90;;;;;;4996856;28;20246;-77
2022/09/22 11:54:57;;;;;;;0.00;0.00;;;18.20;99.90;;;;;;4993214;28;20742;-77
2022/09/22 11:57:30;;;;;;;0.00;0.00;;;17.90;99.90;;;;;;4993304;28;20196;-78
2022/09/22 12:00:04;;;;;;;0.10;0.10;;;17.60;99.90;;;;;;4993005;28;20229;-77
2022/09/22 12:02:41;;;;;;;0.00;0.00;;;17.50;99.90;;;;;;4993275;28;20212;-77
2022/09/22 12:05:15;;;;;;;0.00;0.00;;;17.60;99.90;;;;;;4993136;28;20213;-77
2022/09/22 12:07:49;;;;;;;0.00;0.00;;;17.70;99.90;;;;;;4992560;28;20223;-77
2022/09/22 12:10:22;;;;;;;0.00;0.00;;;17.70;99.90;;;;;;4993005;28;20197;-77
2022/09/22 12:12:51;;;;;;;0.00;0.00;;;17.80;99.90;;;;;;4993133;28;20624;-77
2022/09/22 12:15:25;;;;;;;0.00;0.00;;;18.00;99.90;;;;;;4992954;28;20275;-77
2022/09/22 12:18:01;;;;;;;0.00;0.00;;;18.10;99.90;;;;;;4992775;28;20204;-78
2022/09/22 12:20:38;;;;;;;0.00;0.00;;;18.10;99.90;;;;;;4993100;28;20226;-77
2022/09/22 12:23:18;;;;;;;0.00;0.00;;;18.30;99.90;;;;;;4992454;28;20224;-78
2022/09/22 12:25:49;;;;;;;0.00;0.00;;;18.50;99.90;;;;;;4992876;28;20224;-78
2022/09/22 12:28:19;;;;;;;0.00;0.00;;;18.70;99.10;;;;;;4974951;28;20243;-78
2022/09/22 12:31:02;;;;;;;0.00;0.00;;;19.00;99.10;;;;;;4993970;28;20192;-77
2022/09/22 12:33:31;;;;;;;0.00;0.00;;;19.00;97.60;;;;;;4992962;28;20223;-78
2022/09/22 12:36:02;;;;;;;0.00;0.00;;;18.90;97.50;;;;;;4991211;28;20196;-77
2022/09/22 12:38:31;;;;;;;0.00;0.00;;;19.00;98.60;;;;;;4992474;28;20194;-77
2022/09/22 12:41:03;;;;;;;0.00;0.00;;;19.20;97.30;;;;;;4992321;28;20228;-77
2022/09/22 12:43:33;;;;;;;0.00;0.00;;;19.30;98.10;;;;;;4992523;28;20703;-77
2022/09/22 12:46:05;;;;;;;0.00;0.00;;;19.40;98.20;;;;;;4992369;28;20337;-78
2022/09/22 12:48:35;;;;;;;0.00;0.00;;;19.60;98.10;;;;;;4991902;28;20198;-78
2022/09/22 12:51:28;;;;;;;0.00;0.00;;;19.60;98.70;;;;;;4992509;28;20262;-77
2022/09/22 12:54:29;;;;;;;0.00;0.00;;;19.70;98.00;;;;;;4992327;28;20829;-77
2022/09/22 12:56:59;;;;;;;0.00;0.00;;;19.60;98.40;;;;;;4992033;28;20208;-77
2022/09/22 13:00:12;;;;;;;0.00;0.00;;;19.70;98.90;;;;;;4991688;28;20196;-78
2022/09/22 13:02:43;;;;;;;0.00;0.00;;;19.90;97.40;;;;;;4940949;28;20327;-76
2022/09/22 13:05:33;;;;;;;0.00;0.00;;;20.40;95.00;;;;;;4991817;28;20212;-77
2022/09/22 13:08:03;;;;;;;0.00;0.00;;;20.40;95.10;;;;;;4992030;28;20609;-77
2022/09/22 13:10:42;;;;;;;0.00;0.00;;;20.20;95.80;;;;;;4992129;28;20224;-77
2022/09/22 13:13:23;;;;;;;0.00;0.00;;;20.00;96.20;;;;;;4991998;28;20232;-77
2022/09/22 13:15:58;;;;;;;0.00;0.00;;;19.80;95.70;;;;;;4992120;28;20192;-78
2022/09/22 13:18:31;;;;;;;0.00;0.00;;;19.30;95.40;;;;;;4992057;28;20753;-77
2022/09/22 13:20:59;;;;;;;0.00;0.00;;;19.00;95.60;;;;;;4991374;28;20227;-77
2022/09/22 13:23:29;;;;;;;0.00;0.00;;;18.90;95.90;;;;;;4992140;28;20688;-77
2022/09/22 13:26:06;;;;;;;0.00;0.00;;;18.60;96.40;;;;;;4974381;28;20379;-77
2022/09/22 13:28:34;;;;;;;0.00;0.00;;;18.50;97.20;;;;;;4991814;28;20613;-77
2022/09/22 13:31:03;;;;;;;0.00;0.00;;;18.50;97.40;;;;;;4991500;28;20207;-77
2022/09/22 13:33:35;;;;;;;0.00;0.00;;;18.60;97.40;;;;;;4992007;28;20219;-77
2022/09/22 13:36:06;;;;;;;0.00;0.00;;;18.80;97.60;;;;;;4991773;28;20197;-77
2022/09/22 13:38:37;;;;;;;0.00;0.00;;;19.00;96.70;;;;;;4991649;28;20243;-77